createdAt,value
2023-05-06T00:00:47.142Z,2.00
2023-05-06T00:01:47.070Z,1.00
2023-05-06T00:02:47.330Z,0.00
2023-05-06T00:03:47.430Z,0.00
2023-05-06T00:04:47.330Z,0.00
2023-05-06T00:05:47.079Z,0.00
2023-05-06T00:06:47.057Z,0.00
2023-05-06T00:07:47.067Z,0.00
2023-05-06T00:08:47.038Z,0.00
2023-05-06T00:09:47.017Z,0.00
2023-05-06T00:10:47.029Z,0.00
2023-05-06T00:11:47.030Z,0.00
2023-05-06T00:12:47.037Z,0.00
2023-05-06T00:13:46.987Z,0.00
2023-05-06T00:14:46.969Z,0.00
2023-05-06T00:15:46.967Z,0.00
2023-05-06T00:16:47.000Z,0.00
2023-05-06T00:17:46.946Z,0.00
2023-05-06T00:18:46.947Z,0.00
2023-05-06T00:19:46.917Z,0.00
2023-05-06T00:20:46.914Z,0.00
2023-05-06T00:21:46.910Z,0.00
2023-05-06T00:22:46.877Z,0.00
2023-05-06T00:23:46.904Z,0.00
2023-05-06T00:24:46.882Z,0.00
2023-05-06T00:25:46.863Z,0.00
2023-05-06T00:26:46.838Z,0.00
2023-05-06T00:27:46.826Z,0.00
2023-05-06T00:28:46.829Z,0.00
2023-05-06T00:29:46.847Z,0.00
2023-05-06T00:30:46.829Z,0.00
2023-05-06T00:31:46.806Z,0.00
2023-05-06T00:32:46.870Z,0.00
2023-05-06T00:33:46.781Z,0.00
2023-05-06T00:34:46.758Z,0.00
2023-05-06T00:35:46.753Z,0.00
2023-05-06T00:36:46.752Z,0.00
2023-05-06T00:37:46.757Z,0.00
2023-05-06T00:38:46.717Z,0.00
2023-05-06T00:39:46.710Z,0.00
2023-05-06T00:40:46.694Z,0.00
2023-05-06T00:41:46.671Z,0.00
2023-05-06T00:42:46.674Z,0.00
2023-05-06T00:43:46.678Z,0.00
2023-05-06T00:44:46.671Z,0.00
2023-05-06T00:45:46.650Z,0.00
2023-05-06T00:46:46.648Z,0.00
2023-05-06T00:47:46.639Z,0.00
2023-05-06T00:48:46.613Z,0.00
2023-05-06T00:49:46.605Z,0.00
2023-05-06T00:50:46.601Z,0.00
2023-05-06T00:51:46.574Z,0.00
2023-05-06T00:52:46.568Z,0.00
2023-05-06T00:53:46.561Z,0.00
2023-05-06T00:54:46.563Z,0.00
2023-05-06T00:55:46.531Z,0.00
2023-05-06T00:56:46.541Z,0.00
2023-05-06T00:57:46.542Z,0.00
2023-05-06T00:58:46.518Z,0.00
2023-05-06T00:59:46.498Z,0.00
2023-05-06T01:00:46.543Z,0.00
2023-05-06T01:01:46.463Z,0.00
2023-05-06T01:02:47.917Z,0.00
2023-05-06T01:03:46.528Z,0.00
2023-05-06T01:04:46.470Z,0.00
2023-05-06T01:05:46.428Z,0.00
2023-05-06T01:06:46.430Z,0.00
2023-05-06T01:07:46.401Z,0.00
2023-05-06T01:08:46.414Z,0.00
2023-05-06T01:09:46.385Z,0.00
2023-05-06T01:10:46.389Z,0.00
2023-05-06T01:11:46.374Z,0.00
2023-05-06T01:12:46.390Z,0.00
2023-05-06T01:13:46.374Z,0.00
2023-05-06T01:14:46.343Z,0.00
2023-05-06T01:15:46.345Z,0.00
2023-05-06T01:16:46.342Z,0.00
2023-05-06T01:17:46.363Z,0.00
2023-05-06T01:18:46.303Z,0.00
2023-05-06T01:19:46.268Z,0.00
2023-05-06T01:20:46.290Z,0.00
2023-05-06T01:21:46.261Z,0.00
2023-05-06T01:22:46.274Z,0.00
2023-05-06T01:23:46.235Z,0.00
2023-05-06T01:24:46.242Z,0.00
2023-05-06T01:25:46.266Z,0.00
2023-05-06T01:26:46.232Z,0.00
2023-05-06T01:27:46.209Z,0.00
2023-05-06T01:28:46.326Z,0.00
2023-05-06T01:29:46.194Z,0.00
2023-05-06T01:30:46.245Z,0.00
2023-05-06T01:31:46.157Z,0.00
2023-05-06T01:32:46.207Z,0.00
2023-05-06T01:33:46.129Z,0.00
2023-05-06T01:34:46.130Z,0.00
2023-05-06T01:35:46.109Z,0.00
2023-05-06T01:36:46.166Z,0.00
2023-05-06T01:37:46.111Z,0.00
2023-05-06T01:38:46.099Z,0.00
2023-05-06T01:39:46.099Z,0.00
2023-05-06T01:40:46.059Z,0.00
2023-05-06T01:41:46.037Z,0.00
2023-05-06T01:42:46.045Z,0.00
2023-05-06T01:43:46.017Z,0.00
2023-05-06T01:44:46.028Z,0.00
2023-05-06T01:45:46.017Z,0.00
2023-05-06T01:46:46.121Z,0.00
2023-05-06T01:47:45.994Z,0.00
2023-05-06T01:48:45.986Z,0.00
2023-05-06T01:49:45.948Z,0.00
2023-05-06T01:50:45.969Z,0.00
2023-05-06T01:51:45.934Z,0.00
2023-05-06T01:52:45.933Z,0.00
2023-05-06T01:53:45.922Z,0.00
2023-05-06T01:54:45.922Z,0.00
2023-05-06T01:55:45.907Z,0.00
2023-05-06T01:56:45.881Z,2.00
2023-05-06T01:57:45.919Z,1.00
2023-05-06T01:58:45.874Z,0.00
2023-05-06T01:59:45.858Z,0.00
2023-05-06T02:00:45.856Z,0.00
2023-05-06T02:01:45.915Z,0.00
2023-05-06T02:02:45.907Z,0.00
2023-05-06T02:03:45.976Z,0.00
2023-05-06T02:04:45.811Z,0.00
2023-05-06T02:05:45.781Z,0.00
2023-05-06T02:06:45.773Z,0.00
2023-05-06T02:07:45.774Z,0.00
2023-05-06T02:08:45.794Z,0.00
2023-05-06T02:09:45.747Z,0.00
2023-05-06T02:10:45.734Z,0.00
2023-05-06T02:11:45.720Z,0.00
2023-05-06T02:12:45.751Z,0.00
2023-05-06T02:13:45.709Z,0.00
2023-05-06T02:14:45.705Z,0.00
2023-05-06T02:15:45.703Z,0.00
2023-05-06T02:16:45.663Z,0.00
2023-05-06T02:17:45.666Z,0.00
2023-05-06T02:18:45.665Z,0.00
2023-05-06T02:19:45.643Z,0.00
2023-05-06T02:20:45.648Z,0.00
2023-05-06T02:21:45.619Z,0.00
2023-05-06T02:22:45.601Z,0.00
2023-05-06T02:23:45.588Z,0.00
2023-05-06T02:24:45.579Z,0.00
2023-05-06T02:25:45.588Z,0.00
2023-05-06T02:26:45.566Z,0.00
2023-05-06T02:27:45.566Z,0.00
2023-05-06T02:28:45.555Z,0.00
2023-05-06T02:29:45.528Z,0.00
2023-05-06T02:30:45.533Z,0.00
2023-05-06T02:31:45.561Z,0.00
2023-05-06T02:32:45.538Z,0.00
2023-05-06T02:33:45.505Z,0.00
2023-05-06T02:34:45.484Z,0.00
2023-05-06T02:35:45.462Z,0.00
2023-05-06T02:36:45.481Z,0.00
2023-05-06T02:37:45.452Z,0.00
2023-05-06T02:38:45.462Z,0.00
2023-05-06T02:39:45.437Z,0.00
2023-05-06T02:40:45.418Z,0.00
2023-05-06T02:41:45.408Z,0.00
2023-05-06T02:42:45.426Z,0.00
2023-05-06T02:43:45.406Z,0.00
2023-05-06T02:44:45.376Z,0.00
2023-05-06T02:45:45.402Z,0.00
2023-05-06T02:46:45.357Z,0.00
2023-05-06T02:47:45.462Z,0.00
2023-05-06T02:48:45.327Z,0.00
2023-05-06T02:49:45.320Z,0.00
2023-05-06T02:50:45.345Z,0.00
2023-05-06T02:51:45.296Z,0.00
2023-05-06T02:52:45.294Z,0.00
2023-05-06T02:53:45.336Z,0.00
2023-05-06T02:54:45.261Z,0.00
2023-05-06T02:55:45.279Z,0.00
2023-05-06T02:56:45.242Z,0.00
2023-05-06T02:57:45.239Z,0.00
2023-05-06T02:58:45.218Z,0.00
2023-05-06T02:59:45.242Z,0.00
2023-05-06T03:00:45.232Z,0.00
2023-05-06T03:01:45.201Z,0.00
2023-05-06T03:02:45.187Z,0.00
2023-05-06T03:03:45.209Z,0.00
2023-05-06T03:04:45.160Z,0.00
2023-05-06T03:05:45.142Z,0.00
2023-05-06T03:06:45.150Z,0.00
2023-05-06T03:07:45.141Z,0.00
2023-05-06T03:08:45.112Z,0.00
2023-05-06T03:09:45.122Z,0.00
2023-05-06T03:10:45.077Z,0.00
2023-05-06T03:11:45.088Z,0.00
2023-05-06T03:12:45.087Z,0.00
2023-05-06T03:13:45.080Z,0.00
2023-05-06T03:14:45.047Z,0.00
2023-05-06T03:15:45.065Z,0.00
2023-05-06T03:16:45.047Z,0.00
2023-05-06T03:17:45.051Z,0.00
2023-05-06T03:18:45.045Z,0.00
2023-05-06T03:19:45.007Z,0.00
2023-05-06T03:20:45.016Z,0.00
2023-05-06T03:21:44.998Z,0.00
2023-05-06T03:22:44.953Z,0.00
2023-05-06T03:23:44.948Z,0.00
2023-05-06T03:24:44.951Z,0.00
2023-05-06T03:25:44.954Z,0.00
2023-05-06T03:26:44.923Z,0.00
2023-05-06T03:27:44.925Z,0.00
2023-05-06T03:28:44.894Z,0.00
2023-05-06T03:29:44.905Z,0.00
2023-05-06T03:30:44.847Z,1.00
2023-05-06T03:31:44.904Z,1.00
2023-05-06T03:32:44.846Z,1.00
2023-05-06T03:33:44.864Z,0.00
2023-05-06T03:34:44.853Z,0.00
2023-05-06T03:35:44.873Z,0.00
2023-05-06T03:36:44.813Z,0.00
2023-05-06T03:37:44.849Z,0.00
2023-05-06T03:38:44.758Z,2.00
2023-05-06T03:39:44.732Z,1.00
2023-05-06T03:40:44.724Z,1.00
2023-05-06T03:41:44.764Z,0.00
2023-05-06T03:42:44.705Z,4.00
2023-05-06T03:43:44.728Z,4.00
2023-05-06T03:44:44.672Z,7.00
2023-05-06T03:45:44.683Z,9.00
2023-05-06T03:46:44.661Z,6.00
2023-05-06T03:47:44.692Z,8.00
2023-05-06T03:48:44.642Z,5.00
2023-05-06T03:49:44.648Z,7.00
2023-05-06T03:50:44.609Z,9.00
2023-05-06T03:51:44.631Z,9.00
2023-05-06T03:52:44.606Z,7.00
2023-05-06T03:53:44.581Z,11.00
2023-05-06T03:54:44.597Z,17.00
2023-05-06T03:55:44.566Z,13.00
2023-05-06T03:56:44.549Z,12.00
2023-05-06T03:57:44.564Z,15.00
2023-05-06T03:58:44.538Z,16.00
2023-05-06T03:59:44.540Z,18.00
2023-05-06T04:00:44.499Z,19.00
2023-05-06T04:01:44.539Z,20.00
2023-05-06T04:02:44.504Z,21.00
2023-05-06T04:03:44.508Z,22.00
2023-05-06T04:04:44.484Z,26.00
2023-05-06T04:05:44.464Z,27.00
2023-05-06T04:06:44.441Z,27.00
2023-05-06T04:07:44.442Z,23.00
2023-05-06T04:08:44.429Z,27.00
2023-05-06T04:09:44.414Z,33.00
2023-05-06T04:10:44.397Z,32.00
2023-05-06T04:11:44.381Z,32.00
2023-05-06T04:12:44.474Z,34.00
2023-05-06T04:13:44.376Z,34.00
2023-05-06T04:14:44.353Z,36.00
2023-05-06T04:15:44.345Z,37.00
2023-05-06T04:16:44.423Z,37.00
2023-05-06T04:17:44.356Z,38.00
2023-05-06T04:18:44.320Z,39.00
2023-05-06T04:19:44.308Z,40.00
2023-05-06T04:20:44.295Z,41.00
2023-05-06T04:21:44.281Z,43.00
2023-05-06T04:22:44.273Z,43.00
2023-05-06T04:23:44.252Z,43.00
2023-05-06T04:24:44.239Z,44.00
2023-05-06T04:25:44.327Z,46.00
2023-05-06T04:26:44.231Z,47.00
2023-05-06T04:27:44.230Z,48.00
2023-05-06T04:28:44.206Z,48.00
2023-05-06T04:29:44.194Z,51.00
2023-05-06T04:30:44.191Z,52.00
2023-05-06T04:31:44.235Z,53.00
2023-05-06T04:32:44.218Z,53.00
2023-05-06T04:33:44.162Z,56.00
2023-05-06T04:34:44.152Z,58.00
2023-05-06T04:35:44.134Z,62.00
2023-05-06T04:36:44.144Z,62.00
2023-05-06T04:37:44.127Z,64.00
2023-05-06T04:38:44.107Z,66.00
2023-05-06T04:39:44.110Z,70.00
2023-05-06T04:40:44.081Z,71.00
2023-05-06T04:41:44.089Z,74.00
2023-05-06T04:42:44.062Z,79.00
2023-05-06T04:43:44.090Z,82.00
2023-05-06T04:44:44.064Z,87.00
2023-05-06T04:45:44.075Z,93.00
2023-05-06T04:46:44.011Z,98.00
2023-05-06T04:47:44.030Z,101.00
2023-05-06T04:48:44.015Z,103.00
2023-05-06T04:49:44.004Z,104.00
2023-05-06T04:50:43.975Z,108.00
2023-05-06T04:51:43.969Z,122.00
2023-05-06T04:52:43.946Z,120.00
2023-05-06T04:53:43.950Z,124.00
2023-05-06T04:54:45.487Z,127.00
2023-05-06T04:55:43.970Z,128.00
2023-05-06T04:56:43.912Z,129.00
2023-05-06T04:57:43.911Z,134.00
2023-05-06T04:58:43.911Z,138.00
2023-05-06T04:59:43.877Z,143.00
2023-05-06T05:00:43.867Z,139.00
2023-05-06T05:01:44.053Z,143.00
2023-05-06T05:02:43.964Z,143.00
2023-05-06T05:03:43.933Z,149.00
2023-05-06T05:04:43.820Z,150.00
2023-05-06T05:05:43.970Z,152.00
2023-05-06T05:06:43.800Z,156.00
2023-05-06T05:07:43.804Z,156.00
2023-05-06T05:08:43.786Z,156.00
2023-05-06T05:09:43.775Z,155.00
2023-05-06T05:10:43.827Z,156.00
2023-05-06T05:11:43.797Z,161.00
2023-05-06T05:12:43.777Z,162.00
2023-05-06T05:13:43.750Z,166.00
2023-05-06T05:14:43.715Z,169.00
2023-05-06T05:15:43.782Z,169.00
2023-05-06T05:16:43.736Z,169.00
2023-05-06T05:17:43.722Z,172.00
2023-05-06T05:18:43.671Z,171.00
2023-05-06T05:19:43.673Z,177.00
2023-05-06T05:20:43.668Z,181.00
2023-05-06T05:21:43.650Z,177.00
2023-05-06T05:22:43.628Z,181.00
2023-05-06T05:23:43.671Z,178.00
2023-05-06T05:24:43.604Z,187.00
2023-05-06T05:25:43.611Z,190.00
2023-05-06T05:26:43.622Z,199.00
2023-05-06T05:27:43.582Z,205.00
2023-05-06T05:28:43.619Z,211.00
2023-05-06T05:29:43.581Z,205.00
2023-05-06T05:30:43.567Z,204.00
2023-05-06T05:31:43.626Z,214.00
2023-05-06T05:32:43.573Z,227.00
2023-05-06T05:33:43.654Z,226.00
2023-05-06T05:34:43.583Z,232.00
2023-05-06T05:35:43.608Z,245.00
2023-05-06T05:36:43.542Z,223.00
2023-05-06T05:37:43.584Z,235.00
2023-05-06T05:38:43.561Z,242.00
2023-05-06T05:39:43.530Z,243.00
2023-05-06T05:40:43.532Z,240.00
2023-05-06T05:41:43.424Z,243.00
2023-05-06T05:42:43.411Z,246.00
2023-05-06T05:43:43.426Z,243.00
2023-05-06T05:44:43.397Z,247.00
2023-05-06T05:45:43.391Z,246.00
2023-05-06T05:46:43.607Z,244.00
2023-05-06T05:47:43.416Z,246.00
2023-05-06T05:48:43.364Z,244.00
2023-05-06T05:49:43.414Z,252.00
2023-05-06T05:50:43.368Z,254.00
2023-05-06T05:51:43.327Z,252.00
2023-05-06T05:52:43.320Z,250.00
2023-05-06T05:53:43.348Z,253.00
2023-05-06T05:54:43.317Z,254.00
2023-05-06T05:55:43.279Z,257.00
2023-05-06T05:56:43.339Z,259.00
2023-05-06T05:57:43.262Z,258.00
2023-05-06T05:58:43.240Z,259.00
2023-05-06T05:59:43.244Z,270.00
2023-05-06T06:00:43.231Z,269.00
2023-05-06T06:01:43.236Z,255.00
2023-05-06T06:02:43.254Z,256.00
2023-05-06T06:03:43.487Z,271.00
2023-05-06T06:04:43.179Z,302.00
2023-05-06T06:05:43.176Z,282.00
2023-05-06T06:06:43.200Z,254.00
2023-05-06T06:07:43.156Z,250.00
2023-05-06T06:08:43.146Z,155.00
2023-05-06T06:09:43.148Z,278.00
2023-05-06T06:10:43.114Z,235.00
2023-05-06T06:11:43.116Z,277.00
2023-05-06T06:12:43.152Z,273.00
2023-05-06T06:13:43.106Z,278.00
2023-05-06T06:14:43.068Z,278.00
2023-05-06T06:15:43.104Z,266.00
2023-05-06T06:16:43.153Z,285.00
2023-05-06T06:17:43.141Z,263.00
2023-05-06T06:18:43.084Z,263.00
2023-05-06T06:19:43.035Z,279.00
2023-05-06T06:20:43.022Z,290.00
2023-05-06T06:21:43.019Z,285.00
2023-05-06T06:22:42.989Z,285.00
2023-05-06T06:23:43.211Z,288.00
2023-05-06T06:24:42.965Z,287.00
2023-05-06T06:25:42.962Z,283.00
2023-05-06T06:26:43.006Z,295.00
2023-05-06T06:27:42.968Z,299.00
2023-05-06T06:28:42.924Z,285.00
2023-05-06T06:29:42.959Z,285.00
2023-05-06T06:30:42.909Z,325.00
2023-05-06T06:31:42.937Z,294.00
2023-05-06T06:32:42.919Z,302.00
2023-05-06T06:33:42.897Z,354.00
2023-05-06T06:34:42.859Z,260.00
2023-05-06T06:35:42.896Z,223.00
2023-05-06T06:36:42.835Z,214.00
2023-05-06T06:37:42.838Z,209.00
2023-05-06T06:38:42.900Z,233.00
2023-05-06T06:39:42.805Z,143.00
2023-05-06T06:40:42.833Z,378.00
2023-05-06T06:41:42.799Z,256.00
2023-05-06T06:42:42.786Z,177.00
2023-05-06T06:43:42.780Z,268.00
2023-05-06T06:44:42.767Z,422.00
2023-05-06T06:45:42.800Z,287.00
2023-05-06T06:46:42.866Z,245.00
2023-05-06T06:47:42.760Z,236.00
2023-05-06T06:48:42.751Z,218.00
2023-05-06T06:49:42.719Z,244.00
2023-05-06T06:50:42.713Z,251.00
2023-05-06T06:51:42.695Z,254.00
2023-05-06T06:52:42.657Z,239.00
2023-05-06T06:53:42.655Z,231.00
2023-05-06T06:54:42.659Z,243.00
2023-05-06T06:55:42.657Z,267.00
2023-05-06T06:56:42.637Z,243.00
2023-05-06T06:57:42.612Z,269.00
2023-05-06T06:58:42.676Z,232.00
2023-05-06T06:59:42.605Z,232.00
2023-05-06T07:00:42.603Z,226.00
2023-05-06T07:01:42.673Z,185.00
2023-05-06T07:02:42.690Z,315.00
2023-05-06T07:03:42.667Z,263.00
2023-05-06T07:04:42.560Z,259.00
2023-05-06T07:05:42.537Z,271.00
2023-05-06T07:06:42.558Z,246.00
2023-05-06T07:07:42.511Z,188.00
2023-05-06T07:08:42.514Z,350.00
2023-05-06T07:09:42.482Z,290.00
2023-05-06T07:10:42.483Z,298.00
2023-05-06T07:11:42.510Z,293.00
2023-05-06T07:12:42.480Z,261.00
2023-05-06T07:13:42.440Z,175.00
2023-05-06T07:14:42.429Z,319.00
2023-05-06T07:15:42.417Z,355.00
2023-05-06T07:16:44.633Z,141.00
2023-05-06T07:17:42.422Z,330.00
2023-05-06T07:18:42.390Z,384.00
2023-05-06T07:19:42.382Z,346.00
2023-05-06T07:20:42.375Z,320.00
2023-05-06T07:21:43.226Z,309.00
2023-05-06T07:22:42.372Z,298.00
2023-05-06T07:23:42.316Z,220.00
2023-05-06T07:24:42.320Z,421.00
2023-05-06T07:25:42.299Z,404.00
2023-05-06T07:26:42.319Z,360.00
2023-05-06T07:27:42.296Z,483.00
2023-05-06T07:28:42.275Z,375.00
2023-05-06T07:29:42.257Z,312.00
2023-05-06T07:30:42.257Z,291.00
2023-05-06T07:31:42.238Z,257.00
2023-05-06T07:32:42.300Z,236.00
2023-05-06T07:33:42.204Z,229.00
2023-05-06T07:34:42.212Z,227.00
2023-05-06T07:35:42.182Z,227.00
2023-05-06T07:36:42.178Z,226.00
2023-05-06T07:37:42.205Z,225.00
2023-05-06T07:38:42.183Z,265.00
2023-05-06T07:39:42.156Z,268.00
2023-05-06T07:40:42.149Z,248.00
2023-05-06T07:41:42.128Z,216.00
2023-05-06T07:42:43.186Z,213.00
2023-05-06T07:43:42.109Z,225.00
2023-05-06T07:44:42.123Z,236.00
2023-05-06T07:45:42.133Z,223.00
2023-05-06T07:46:42.168Z,194.00
2023-05-06T07:47:42.114Z,305.00
2023-05-06T07:48:42.101Z,327.00
2023-05-06T07:49:42.049Z,369.00
2023-05-06T07:50:42.030Z,245.00
2023-05-06T07:51:42.012Z,321.00
2023-05-06T07:52:42.039Z,327.00
2023-05-06T07:53:41.996Z,325.00
2023-05-06T07:54:42.020Z,334.00
2023-05-06T07:55:42.050Z,338.00
2023-05-06T07:56:41.981Z,391.00
2023-05-06T07:57:41.962Z,214.00
2023-05-06T07:58:41.961Z,322.00
2023-05-06T07:59:41.962Z,224.00
2023-05-06T08:00:41.924Z,207.00
2023-05-06T08:01:41.923Z,208.00
2023-05-06T08:02:41.980Z,147.00
2023-05-06T08:03:42.012Z,229.00
2023-05-06T08:04:42.026Z,224.00
2023-05-06T08:05:41.853Z,306.00
2023-05-06T08:06:41.852Z,302.00
2023-05-06T08:07:41.875Z,252.00
2023-05-06T08:08:41.847Z,302.00
2023-05-06T08:09:41.811Z,214.00
2023-05-06T08:10:41.832Z,198.00
2023-05-06T08:11:41.794Z,196.00
2023-05-06T08:12:41.886Z,246.00
2023-05-06T08:13:41.802Z,215.00
2023-05-06T08:14:41.779Z,263.00
2023-05-06T08:15:41.764Z,234.00
2023-05-06T08:16:41.925Z,139.00
2023-05-06T08:17:41.842Z,258.00
2023-05-06T08:18:41.747Z,303.00
2023-05-06T08:19:41.714Z,361.00
2023-05-06T08:20:41.854Z,233.00
2023-05-06T08:21:41.685Z,224.00
2023-05-06T08:22:41.701Z,366.00
2023-05-06T08:23:41.770Z,406.00
2023-05-06T08:24:41.666Z,390.00
2023-05-06T08:25:41.708Z,251.00
2023-05-06T08:26:41.650Z,343.00
2023-05-06T08:27:41.661Z,370.00
2023-05-06T08:28:41.710Z,372.00
2023-05-06T08:29:41.601Z,375.00
2023-05-06T08:30:41.637Z,396.00
2023-05-06T08:31:41.626Z,383.00
2023-05-06T08:32:41.614Z,372.00
2023-05-06T08:33:41.602Z,433.00
2023-05-06T08:34:41.557Z,183.00
2023-05-06T08:35:41.577Z,372.00
2023-05-06T08:36:41.536Z,367.00
2023-05-06T08:37:41.552Z,351.00
2023-05-06T08:38:41.579Z,358.00
2023-05-06T08:39:41.508Z,350.00
2023-05-06T08:40:41.508Z,334.00
2023-05-06T08:41:41.561Z,353.00
2023-05-06T08:42:41.584Z,355.00
2023-05-06T08:43:41.583Z,368.00
2023-05-06T08:44:41.466Z,417.00
2023-05-06T08:45:41.525Z,402.00
2023-05-06T08:46:41.434Z,324.00
2023-05-06T08:47:41.447Z,248.00
2023-05-06T08:48:41.392Z,294.00
2023-05-06T08:49:41.400Z,347.00
2023-05-06T08:50:41.384Z,185.00
2023-05-06T08:51:41.449Z,216.00
2023-05-06T08:52:41.355Z,409.00
2023-05-06T08:53:41.352Z,268.00
2023-05-06T08:54:41.330Z,342.00
2023-05-06T08:55:41.364Z,358.00
2023-05-06T08:56:42.439Z,357.00
2023-05-06T08:57:41.302Z,340.00
2023-05-06T08:58:41.277Z,381.00
2023-05-06T08:59:41.272Z,343.00
2023-05-06T09:00:41.292Z,362.00
2023-05-06T09:01:41.319Z,357.00
2023-05-06T09:02:43.072Z,355.00
2023-05-06T09:03:41.286Z,402.00
2023-05-06T09:04:41.240Z,356.00
2023-05-06T09:05:41.215Z,372.00
2023-05-06T09:06:41.227Z,392.00
2023-05-06T09:07:41.261Z,317.00
2023-05-06T09:08:41.201Z,115.00
2023-05-06T09:09:41.180Z,370.00
2023-05-06T09:10:41.156Z,405.00
2023-05-06T09:11:41.176Z,290.00
2023-05-06T09:12:41.406Z,176.00
2023-05-06T09:13:41.140Z,352.00
2023-05-06T09:14:41.123Z,348.00
2023-05-06T09:15:41.104Z,353.00
2023-05-06T09:16:41.186Z,349.00
2023-05-06T09:17:41.129Z,348.00
2023-05-06T09:18:41.071Z,354.00
2023-05-06T09:19:41.079Z,353.00
2023-05-06T09:20:41.090Z,358.00
2023-05-06T09:21:41.058Z,356.00
2023-05-06T09:22:41.035Z,388.00
2023-05-06T09:23:41.047Z,373.00
2023-05-06T09:24:41.022Z,261.00
2023-05-06T09:25:41.015Z,257.00
2023-05-06T09:26:41.001Z,248.00
2023-05-06T09:27:40.998Z,267.00
2023-05-06T09:28:40.969Z,262.00
2023-05-06T09:29:40.941Z,247.00
2023-05-06T09:30:41.037Z,212.00
2023-05-06T09:31:40.960Z,279.00
2023-05-06T09:32:41.076Z,348.00
2023-05-06T09:33:40.906Z,379.00
2023-05-06T09:34:40.904Z,391.00
2023-05-06T09:35:40.951Z,389.00
2023-05-06T09:36:40.890Z,402.00
2023-05-06T09:37:40.927Z,394.00
2023-05-06T09:38:40.888Z,393.00
2023-05-06T09:39:40.929Z,402.00
2023-05-06T09:40:40.845Z,400.00
2023-05-06T09:41:40.846Z,463.00
2023-05-06T09:42:40.818Z,405.00
2023-05-06T09:43:40.849Z,390.00
2023-05-06T09:44:40.805Z,283.00
2023-05-06T09:45:40.780Z,270.00
2023-05-06T09:46:40.931Z,480.00
2023-05-06T09:47:40.809Z,313.00
2023-05-06T09:48:40.747Z,305.00
2023-05-06T09:49:40.760Z,203.00
2023-05-06T09:50:40.737Z,297.00
2023-05-06T09:51:40.723Z,481.00
2023-05-06T09:52:40.710Z,376.00
2023-05-06T09:53:40.698Z,318.00
2023-05-06T09:54:40.694Z,365.00
2023-05-06T09:55:40.674Z,378.00
2023-05-06T09:56:40.669Z,347.00
2023-05-06T09:57:40.651Z,346.00
2023-05-06T09:58:40.648Z,350.00
2023-05-06T09:59:40.633Z,352.00
2023-05-06T10:00:40.632Z,369.00
2023-05-06T10:01:40.721Z,354.00
2023-05-06T10:02:40.783Z,339.00
2023-05-06T10:03:40.678Z,340.00
2023-05-06T10:04:40.765Z,351.00
2023-05-06T10:05:40.568Z,357.00
2023-05-06T10:06:40.624Z,352.00
2023-05-06T10:07:40.605Z,343.00
2023-05-06T10:08:40.558Z,425.00
2023-05-06T10:09:40.533Z,329.00
2023-05-06T10:10:40.536Z,265.00
2023-05-06T10:11:40.522Z,151.00
2023-05-06T10:12:40.539Z,271.00
2023-05-06T10:13:40.488Z,326.00
2023-05-06T10:14:40.497Z,303.00
2023-05-06T10:15:40.473Z,294.00
2023-05-06T10:16:40.526Z,339.00
2023-05-06T10:17:40.459Z,282.00
2023-05-06T10:18:40.453Z,377.00
2023-05-06T10:19:40.424Z,362.00
2023-05-06T10:20:40.409Z,347.00
2023-05-06T10:21:40.391Z,277.00
2023-05-06T10:22:40.385Z,271.00
2023-05-06T10:23:40.374Z,125.00
2023-05-06T10:24:40.362Z,444.00
2023-05-06T10:25:40.363Z,280.00
2023-05-06T10:26:40.349Z,317.00
2023-05-06T10:27:40.344Z,149.00
2023-05-06T10:28:40.324Z,357.00
2023-05-06T10:29:40.305Z,353.00
2023-05-06T10:30:40.306Z,360.00
2023-05-06T10:31:40.376Z,322.00
2023-05-06T10:32:40.294Z,335.00
2023-05-06T10:33:42.179Z,354.00
2023-05-06T10:34:40.244Z,352.00
2023-05-06T10:35:40.236Z,334.00
2023-05-06T10:36:40.254Z,317.00
2023-05-06T10:37:40.217Z,327.00
2023-05-06T10:38:40.208Z,344.00
2023-05-06T10:39:41.945Z,370.00
2023-05-06T10:40:40.181Z,354.00
2023-05-06T10:41:40.262Z,356.00
2023-05-06T10:42:40.161Z,369.00
2023-05-06T10:43:40.155Z,372.00
2023-05-06T10:44:40.153Z,375.00
2023-05-06T10:45:40.151Z,377.00
2023-05-06T10:46:40.113Z,375.00
2023-05-06T10:47:40.161Z,366.00
2023-05-06T10:48:40.100Z,349.00
2023-05-06T10:49:40.089Z,363.00
2023-05-06T10:50:40.083Z,357.00
2023-05-06T10:51:40.068Z,353.00
2023-05-06T10:52:40.179Z,348.00
2023-05-06T10:53:40.033Z,352.00
2023-05-06T10:54:40.030Z,360.00
2023-05-06T10:55:40.040Z,358.00
2023-05-06T10:56:40.048Z,353.00
2023-05-06T10:57:40.011Z,347.00
2023-05-06T10:58:39.982Z,439.00
2023-05-06T10:59:39.965Z,402.00
2023-05-06T11:00:39.968Z,335.00
2023-05-06T11:01:40.036Z,264.00
2023-05-06T11:02:40.038Z,368.00
2023-05-06T11:03:39.988Z,310.00
2023-05-06T11:04:39.935Z,346.00
2023-05-06T11:05:39.895Z,300.00
2023-05-06T11:06:39.910Z,408.00
2023-05-06T11:07:39.885Z,392.00
2023-05-06T11:08:40.156Z,401.00
2023-05-06T11:09:39.854Z,394.00
2023-05-06T11:10:39.865Z,392.00
2023-05-06T11:11:39.837Z,393.00
2023-05-06T11:12:39.858Z,393.00
2023-05-06T11:13:39.824Z,497.00
2023-05-06T11:14:39.813Z,271.00
2023-05-06T11:15:39.812Z,380.00
2023-05-06T11:16:39.835Z,389.00
2023-05-06T11:17:39.802Z,401.00
2023-05-06T11:18:39.815Z,405.00
2023-05-06T11:19:39.785Z,489.00
2023-05-06T11:20:39.756Z,248.00
2023-05-06T11:21:39.724Z,419.00
2023-05-06T11:22:39.716Z,397.00
2023-05-06T11:23:39.706Z,393.00
2023-05-06T11:24:39.691Z,383.00
2023-05-06T11:25:39.697Z,389.00
2023-05-06T11:26:39.674Z,485.00
2023-05-06T11:27:39.662Z,297.00
2023-05-06T11:28:39.691Z,344.00
2023-05-06T11:29:39.646Z,327.00
2023-05-06T11:30:39.674Z,517.00
2023-05-06T11:31:39.633Z,389.00
2023-05-06T11:32:39.637Z,369.00
2023-05-06T11:33:39.591Z,365.00
2023-05-06T11:34:39.580Z,372.00
2023-05-06T11:35:39.589Z,363.00
2023-05-06T11:36:39.570Z,373.00
2023-05-06T11:37:39.585Z,361.00
2023-05-06T11:38:39.551Z,356.00
2023-05-06T11:39:40.706Z,357.00
2023-05-06T11:40:39.524Z,359.00
2023-05-06T11:41:39.532Z,354.00
2023-05-06T11:42:39.496Z,364.00
2023-05-06T11:43:39.505Z,379.00
2023-05-06T11:44:39.523Z,382.00
2023-05-06T11:45:39.473Z,374.00
2023-05-06T11:46:39.506Z,385.00
2023-05-06T11:47:39.512Z,402.00
2023-05-06T11:48:39.426Z,395.00
2023-05-06T11:49:39.429Z,392.00
2023-05-06T11:50:39.415Z,389.00
2023-05-06T11:51:39.400Z,324.00
2023-05-06T11:52:39.388Z,412.00
2023-05-06T11:53:39.386Z,381.00
2023-05-06T11:54:39.379Z,367.00
2023-05-06T11:55:39.358Z,375.00
2023-05-06T11:56:39.363Z,357.00
2023-05-06T11:57:39.334Z,359.00
2023-05-06T11:58:39.325Z,286.00
2023-05-06T11:59:39.310Z,486.00
2023-05-06T12:00:39.308Z,339.00
2023-05-06T12:01:39.297Z,344.00
2023-05-06T12:02:39.322Z,344.00
2023-05-06T12:03:39.458Z,325.00
2023-05-06T12:04:39.312Z,329.00
2023-05-06T12:05:39.251Z,333.00
2023-05-06T12:06:39.233Z,332.00
2023-05-06T12:07:39.229Z,316.00
2023-05-06T12:08:39.224Z,261.00
2023-05-06T12:09:39.210Z,335.00
2023-05-06T12:10:39.304Z,392.00
2023-05-06T12:11:39.183Z,391.00
2023-05-06T12:12:39.238Z,377.00
2023-05-06T12:13:39.164Z,392.00
2023-05-06T12:14:39.144Z,390.00
2023-05-06T12:15:39.135Z,365.00
2023-05-06T12:16:39.318Z,367.00
2023-05-06T12:17:39.132Z,379.00
2023-05-06T12:18:39.098Z,445.00
2023-05-06T12:19:39.109Z,312.00
2023-05-06T12:20:39.088Z,231.00
2023-05-06T12:21:39.093Z,374.00
2023-05-06T12:22:39.057Z,379.00
2023-05-06T12:23:39.087Z,326.00
2023-05-06T12:24:39.043Z,347.00
2023-05-06T12:25:39.029Z,349.00
2023-05-06T12:26:39.018Z,365.00
2023-05-06T12:27:39.001Z,388.00
2023-05-06T12:28:39.001Z,380.00
2023-05-06T12:29:38.982Z,368.00
2023-05-06T12:30:38.984Z,349.00
2023-05-06T12:31:39.010Z,347.00
2023-05-06T12:32:38.988Z,403.00
2023-05-06T12:33:38.946Z,369.00
2023-05-06T12:34:38.928Z,325.00
2023-05-06T12:35:38.936Z,273.00
2023-05-06T12:36:38.902Z,271.00
2023-05-06T12:37:38.917Z,498.00
2023-05-06T12:38:38.915Z,362.00
2023-05-06T12:39:38.880Z,365.00
2023-05-06T12:40:38.859Z,323.00
2023-05-06T12:41:38.853Z,366.00
2023-05-06T12:42:38.837Z,522.00
2023-05-06T12:43:38.846Z,410.00
2023-05-06T12:44:38.839Z,414.00